sensor_id;sensor_type;location;lat;lon;timestamp;pressure;altitude;pressure_sealevel;temperature;humidity
57799;BME280;43626;53.866;30.298;2023-06-10T00:02:14;1025.3;;;17.3;60.2
57799;BME280;43626;53.866;30.298;2023-06-10T00:07:28;1025.3;;;17.2;60.7
57799;BME280;43626;53.866;30.298;2023-06-10T00:12:06;1025.3;;;17;61.5
57799;BME280;43626;53.866;30.298;2023-06-10T00:16:52;1025.3;;;16.8;62.1
57799;BME280;43626;53.866;30.298;2023-06-10T00:22:14;1025.3;;;16.7;62.2
57799;BME280;43626;53.866;30.298;2023-06-10T00:27:28;1025.3;;;16.7;62.2
57799;BME280;43626;53.866;30.298;2023-06-10T00:31:52;1025.4;;;16.5;62.4
57799;BME280;43626;53.866;30.298;2023-06-10T00:37:18;1025.3;;;16.4;62.8
57799;BME280;43626;53.866;30.298;2023-06-10T00:42:12;1025.3;;;16.4;63
57799;BME280;43626;53.866;30.298;2023-06-10T00:47:26;1025.3;;;16.4;63.1
57799;BME280;43626;53.866;30.298;2023-06-10T00:52:04;1025.3;;;16.3;64
57799;BME280;43626;53.866;30.298;2023-06-10T00:57:04;1025.2;;;16.2;64.9
57799;BME280;43626;53.866;30.298;2023-06-10T01:02:26;1025.2;;;16.1;65.5
57799;BME280;43626;53.866;30.298;2023-06-10T01:07:27;1025.2;;;16.1;65.9
57799;BME280;43626;53.866;30.298;2023-06-10T01:11:57;1025.2;;;16.1;66.3
57799;BME280;43626;53.866;30.298;2023-06-10T01:16:54;1025.3;;;16.1;66.2
57799;BME280;43626;53.866;30.298;2023-06-10T01:22:14;1025.3;;;16.2;65.7
57799;BME280;43626;53.866;30.298;2023-06-10T01:27:26;1025.4;;;16.2;65.4
57799;BME280;43626;53.866;30.298;2023-06-10T01:31:43;1025.4;;;16.1;65.2
57799;BME280;43626;53.866;30.298;2023-06-10T01:37:08;1025.4;;;16;65.3
57799;BME280;43626;53.866;30.298;2023-06-10T01:42:14;1025.5;;;15.9;65.5
57799;BME280;43626;53.866;30.298;2023-06-10T01:47:28;1025.6;;;15.9;65.5
57799;BME280;43626;53.866;30.298;2023-06-10T01:52:08;1025.7;;;15.9;64.9
57799;BME280;43626;53.866;30.298;2023-06-10T01:56:54;1025.7;;;15.9;64.2
57799;BME280;43626;53.866;30.298;2023-06-10T02:01:58;1025.8;;;15.8;64.1
57799;BME280;43626;53.866;30.298;2023-06-10T02:06:42;1025.7;;;15.8;62.7
57799;BME280;43626;53.866;30.298;2023-06-10T02:11:42;1025.8;;;15.7;62
57799;BME280;43626;53.866;30.298;2023-06-10T02:16:56;1025.9;;;15.6;61.8
57799;BME280;43626;53.866;30.298;2023-06-10T02:22:16;1025.9;;;15.7;61.1
57799;BME280;43626;53.866;30.298;2023-06-10T02:26:42;1025.9;;;15.6;60.4
57799;BME280;43626;53.866;30.298;2023-06-10T02:31:42;1026;;;15.5;60
57799;BME280;43626;53.866;30.298;2023-06-10T02:36:54;1026;;;15.5;59.6
57799;BME280;43626;53.866;30.298;2023-06-10T02:41:44;1026;;;15.4;59.3
57799;BME280;43626;53.866;30.298;2023-06-10T02:47:20;1026;;;15.3;58.8
57799;BME280;43626;53.866;30.298;2023-06-10T02:52:14;1026;;;15.3;58.7
57799;BME280;43626;53.866;30.298;2023-06-10T02:56:54;1026;;;15.2;58.9
57799;BME280;43626;53.866;30.298;2023-06-10T03:01:44;1026.1;;;15;59.4
57799;BME280;43626;53.866;30.298;2023-06-10T03:07:04;1026.1;;;14.8;60
57799;BME280;43626;53.866;30.298;2023-06-10T03:12:08;1026.2;;;14.8;60
57799;BME280;43626;53.866;30.298;2023-06-10T03:16:42;1026.3;;;14.7;60.3
57799;BME280;43626;53.866;30.298;2023-06-10T03:22:14;1026.3;;;14.6;60.5
57799;BME280;43626;53.866;30.298;2023-06-10T03:27:06;1026.3;;;14.5;60.6
57799;BME280;43626;53.866;30.298;2023-06-10T03:32:14;1026.4;;;14.5;60.7
57799;BME280;43626;53.866;30.298;2023-06-10T03:36:54;1026.4;;;14.5;60.7
57799;BME280;43626;53.866;30.298;2023-06-10T03:42:14;1026.5;;;14.4;61
57799;BME280;43626;53.866;30.298;2023-06-10T03:47:06;1026.5;;;14.4;61.1
57799;BME280;43626;53.866;30.298;2023-06-10T03:52:08;1026.5;;;14.5;61
57799;BME280;43626;53.866;30.298;2023-06-10T03:57:22;1026.6;;;14.7;60.6
57799;BME280;43626;53.866;30.298;2023-06-10T04:02:14;1026.6;;;14.9;60.1
57799;BME280;43626;53.866;30.298;2023-06-10T04:07:04;1026.6;;;14.9;59.5
57799;BME280;43626;53.866;30.298;2023-06-10T04:12:08;1026.6;;;14.9;59.6
57799;BME280;43626;53.866;30.298;2023-06-10T04:17:08;1026.5;;;15;59.4
57799;BME280;43626;53.866;30.298;2023-06-10T04:22:00;1026.5;;;15.1;58.9
57799;BME280;43626;53.866;30.298;2023-06-10T04:26:54;1026.6;;;15.1;58.5
57799;BME280;43626;53.866;30.298;2023-06-10T04:31:42;1026.6;;;15.1;58.4
57799;BME280;43626;53.866;30.298;2023-06-10T04:36:42;1026.7;;;15.3;58.1
57799;BME280;43626;53.866;30.298;2023-06-10T04:42:28;1026.8;;;15.3;57.5
57799;BME280;43626;53.866;30.298;2023-06-10T04:47:28;1026.8;;;15.3;57.4
57799;BME280;43626;53.866;30.298;2023-06-10T04:51:54;1026.8;;;15.4;57.3
57799;BME280;43626;53.866;30.298;2023-06-10T04:57:08;1026.7;;;15.6;56.9
57799;BME280;43626;53.866;30.298;2023-06-10T05:02:14;1026.7;;;15.7;56.2
57799;BME280;43626;53.866;30.298;2023-06-10T05:06:42;1026.7;;;15.8;56.2
57799;BME280;43626;53.866;30.298;2023-06-10T05:12:14;1026.8;;;15.9;56
57799;BME280;43626;53.866;30.298;2023-06-10T05:16:42;1026.8;;;16.1;55.6
57799;BME280;43626;53.866;30.298;2023-06-10T05:22:14;1026.9;;;16.1;55.2
57799;BME280;43626;53.866;30.298;2023-06-10T05:27:06;1026.9;;;16.2;54.9
57799;BME280;43626;53.866;30.298;2023-06-10T05:31:42;1026.9;;;16.2;54.7
57799;BME280;43626;53.866;30.298;2023-06-10T05:36:54;1027;;;16.2;54.2
57799;BME280;43626;53.866;30.298;2023-06-10T05:42:16;1027;;;16.2;54
57799;BME280;43626;53.866;30.298;2023-06-10T05:47:02;1027.1;;;16.3;54
57799;BME280;43626;53.866;30.298;2023-06-10T05:51:54;1027.1;;;16.5;53.3
57799;BME280;43626;53.866;30.298;2023-06-10T05:56:56;1027.2;;;16.6;52.6
57799;BME280;43626;53.866;30.298;2023-06-10T06:02:00;1027.2;;;16.7;52.3
57799;BME280;43626;53.866;30.298;2023-06-10T06:06:42;1027.2;;;16.7;52.1
57799;BME280;43626;53.866;30.298;2023-06-10T06:11:54;1027.3;;;16.8;51.9
57799;BME280;43626;53.866;30.298;2023-06-10T06:16:58;1027.3;;;16.8;51.8
57799;BME280;43626;53.866;30.298;2023-06-10T06:22:28;1027.3;;;16.8;51.8
57799;BME280;43626;53.866;30.298;2023-06-10T06:27:30;1027.4;;;16.7;51.6
57799;BME280;43626;53.866;30.298;2023-06-10T06:31:42;1027.4;;;16.7;51.5
57799;BME280;43626;53.866;30.298;2023-06-10T06:36:58;1027.4;;;16.6;51.8
57799;BME280;43626;53.866;30.298;2023-06-10T06:42:26;1027.4;;;16.7;51.8
57799;BME280;43626;53.866;30.298;2023-06-10T06:47:14;1027.5;;;16.9;51.5
57799;BME280;43626;53.866;30.298;2023-06-10T06:51:56;1027.5;;;17;50.9
57799;BME280;43626;53.866;30.298;2023-06-10T06:57:14;1027.5;;;17.2;50.6
57799;BME280;43626;53.866;30.298;2023-06-10T07:02:26;1027.6;;;17.3;50.1
57799;BME280;43626;53.866;30.298;2023-06-10T07:06:48;1027.5;;;17.4;49.4
57799;BME280;43626;53.866;30.298;2023-06-10T07:11:42;1027.6;;;17.4;49.6
57799;BME280;43626;53.866;30.298;2023-06-10T07:16:58;1027.6;;;17.4;49.7
57799;BME280;43626;53.866;30.298;2023-06-10T07:22:26;1027.6;;;17.6;49.3
57799;BME280;43626;53.866;30.298;2023-06-10T07:27:14;1027.6;;;17.7;48.7
57799;BME280;43626;53.866;30.298;2023-06-10T07:31:54;1027.7;;;17.7;48.7
57799;BME280;43626;53.866;30.298;2023-06-10T07:36:58;1027.7;;;17.8;48.8
57799;BME280;43626;53.866;30.298;2023-06-10T07:42:26;1027.7;;;17.8;48.9
57799;BME280;43626;53.866;30.298;2023-06-10T07:47:14;1027.7;;;17.9;49.1
57799;BME280;43626;53.866;30.298;2023-06-10T07:52:12;1027.6;;;18.1;48.8
57799;BME280;43626;53.866;30.298;2023-06-10T07:56:42;1027.7;;;18.4;48.4
57799;BME280;43626;53.866;30.298;2023-06-10T08:02:26;1027.6;;;18.4;47.8
57799;BME280;43626;53.866;30.298;2023-06-10T08:07:10;1027.7;;;18.5;47.4
57799;BME280;43626;53.866;30.298;2023-06-10T08:11:54;1027.7;;;18.6;46.8
57799;BME280;43626;53.866;30.298;2023-06-10T08:16:42;1027.7;;;18.8;46.5
57799;BME280;43626;53.866;30.298;2023-06-10T08:22:26;1027.7;;;19.1;45.8
57799;BME280;43626;53.866;30.298;2023-06-10T08:27:14;1027.7;;;19.3;45.6
57799;BME280;43626;53.866;30.298;2023-06-10T08:31:42;1027.7;;;19.4;45.3
57799;BME280;43626;53.866;30.298;2023-06-10T08:36:42;1027.7;;;19.4;45.7
57799;BME280;43626;53.866;30.298;2023-06-10T08:42:28;1027.7;;;19.5;45.8
57799;BME280;43626;53.866;30.298;2023-06-10T08:47:15;1027.6;;;19.8;45.5
57799;BME280;43626;53.866;30.298;2023-06-10T08:51:55;1027.7;;;19.9;45.2
57799;BME280;43626;53.866;30.298;2023-06-10T08:56:58;1027.7;;;20;45.1
57799;BME280;43626;53.866;30.298;2023-06-10T09:02:26;1027.6;;;20.1;44.7
57799;BME280;43626;53.866;30.298;2023-06-10T09:07:14;1027.6;;;20.2;44.1
57799;BME280;43626;53.866;30.298;2023-06-10T09:11:42;1027.7;;;20.4;43.5
57799;BME280;43626;53.866;30.298;2023-06-10T09:16:42;1027.7;;;20.4;43.2
57799;BME280;43626;53.866;30.298;2023-06-10T09:22:28;1027.7;;;20.3;43.2
57799;BME280;43626;53.866;30.298;2023-06-10T09:27:14;1027.8;;;20.4;42.9
57799;BME280;43626;53.866;30.298;2023-06-10T09:31:54;1027.7;;;20.4;43.2
57799;BME280;43626;53.866;30.298;2023-06-10T09:36:54;1027.8;;;20.4;43.3
57799;BME280;43626;53.866;30.298;2023-06-10T09:42:31;1027.7;;;20.5;43
57799;BME280;43626;53.866;30.298;2023-06-10T09:47:19;1027.8;;;20.4;42.8
57799;BME280;43626;53.866;30.298;2023-06-10T09:52:00;1027.7;;;20.4;42.7
57799;BME280;43626;53.866;30.298;2023-06-10T09:57:00;1027.7;;;20.3;42.7
57799;BME280;43626;53.866;30.298;2023-06-10T10:02:26;1027.7;;;20.1;42.6
57799;BME280;43626;53.866;30.298;2023-06-10T10:07:14;1027.8;;;20.2;42.6
57799;BME280;43626;53.866;30.298;2023-06-10T10:11:42;1027.8;;;20.3;41.6
57799;BME280;43626;53.866;30.298;2023-06-10T10:16:42;1027.8;;;20.2;41.9
57799;BME280;43626;53.866;30.298;2023-06-10T10:22:15;1027.9;;;20.3;41.3
57799;BME280;43626;53.866;30.298;2023-06-10T10:26:58;1027.9;;;20.3;40.7
57799;BME280;43626;53.866;30.298;2023-06-10T10:31:42;1027.8;;;20.3;40.4
57799;BME280;43626;53.866;30.298;2023-06-10T10:37:16;1027.8;;;20.2;40.5
57799;BME280;43626;53.866;30.298;2023-06-10T10:42:30;1027.9;;;20.1;40.5
57799;BME280;43626;53.866;30.298;2023-06-10T10:47:30;1027.9;;;20;40.5
57799;BME280;43626;53.866;30.298;2023-06-10T10:51:58;1027.9;;;20;40.4
57799;BME280;43626;53.866;30.298;2023-06-10T10:57:29;1028;;;20;40.1
57799;BME280;43626;53.866;30.298;2023-06-10T11:02:06;1028;;;20;39.3
57799;BME280;43626;53.866;30.298;2023-06-10T11:07:30;1028;;;20;38.7
57799;BME280;43626;53.866;30.298;2023-06-10T11:11:56;1028;;;20;38.6
57799;BME280;43626;53.866;30.298;2023-06-10T11:17:30;1028;;;20.1;37.6
57799;BME280;43626;53.866;30.298;2023-06-10T11:22:16;1028.1;;;20.2;37.3
57799;BME280;43626;53.866;30.298;2023-06-10T11:27:37;1028;;;20.3;37
57799;BME280;43626;53.866;30.298;2023-06-10T11:31:43;1028.1;;;20.6;37.2
57799;BME280;43626;53.866;30.298;2023-06-10T11:37:30;1028.1;;;20.8;36.9
57799;BME280;43626;53.866;30.298;2023-06-10T11:42:02;1028.1;;;20.8;36.5
57799;BME280;43626;53.866;30.298;2023-06-10T11:47:30;1028.1;;;20.7;36.4
57799;BME280;43626;53.866;30.298;2023-06-10T11:51:42;1028.1;;;20.8;36.4
57799;BME280;43626;53.866;30.298;2023-06-10T11:57:33;1028.1;;;20.9;36.2
57799;BME280;43626;53.866;30.298;2023-06-10T12:02:00;1028.1;;;21;35.5
57799;BME280;43626;53.866;30.298;2023-06-10T12:07:28;1028.1;;;21.1;34.7
57799;BME280;43626;53.866;30.298;2023-06-10T12:12:02;1028;;;21.1;34
57799;BME280;43626;53.866;30.298;2023-06-10T12:17:35;1028;;;21;33.8
57799;BME280;43626;53.866;30.298;2023-06-10T12:22:12;1028;;;20.8;34.1
57799;BME280;43626;53.866;30.298;2023-06-10T12:27:28;1028;;;20.7;34.5
57799;BME280;43626;53.866;30.298;2023-06-10T12:31:59;1028;;;20.8;34.6
57799;BME280;43626;53.866;30.298;2023-06-10T12:37:26;1028;;;20.8;34.5
57799;BME280;43626;53.866;30.298;2023-06-10T12:42:12;1028;;;20.9;34.4
57799;BME280;43626;53.866;30.298;2023-06-10T12:47:29;1028;;;20.7;34.3
57799;BME280;43626;53.866;30.298;2023-06-10T12:51:42;1028;;;20.6;34.3
57799;BME280;43626;53.866;30.298;2023-06-10T12:57:28;1028;;;20.8;34.1
57799;BME280;43626;53.866;30.298;2023-06-10T13:02:00;1028;;;21.1;33.4
57799;BME280;43626;53.866;30.298;2023-06-10T13:07:28;1028;;;21;33
57799;BME280;43626;53.866;30.298;2023-06-10T13:11:42;1028;;;20.9;33.1
57799;BME280;43626;53.866;30.298;2023-06-10T13:17:26;1028;;;20.7;33.3
57799;BME280;43626;53.866;30.298;2023-06-10T13:22:10;1028;;;20.8;33
57799;BME280;43626;53.866;30.298;2023-06-10T13:27:14;1028;;;21;32.9
57799;BME280;43626;53.866;30.298;2023-06-10T13:31:42;1028;;;21;33.1
57799;BME280;43626;53.866;30.298;2023-06-10T13:37:30;1028;;;20.8;33.1
57799;BME280;43626;53.866;30.298;2023-06-10T13:42:12;1028.1;;;20.7;33.1
57799;BME280;43626;53.866;30.298;2023-06-10T13:47:30;1028;;;20.6;33.3
57799;BME280;43626;53.866;30.298;2023-06-10T13:52:30;1028;;;20.6;33.1
57799;BME280;43626;53.866;30.298;2023-06-10T13:57:30;1028;;;20.6;32.8
57799;BME280;43626;53.866;30.298;2023-06-10T14:02:14;1028;;;20.5;32.9
57799;BME280;43626;53.866;30.298;2023-06-10T14:07:30;1028.1;;;20.4;32.9
57799;BME280;43626;53.866;30.298;2023-06-10T14:11:46;1028.1;;;20.4;32.7
57799;BME280;43626;53.866;30.298;2023-06-10T14:17:26;1028.1;;;20.4;32.7
57799;BME280;43626;53.866;30.298;2023-06-10T14:22:02;1028;;;20.3;32.7
57799;BME280;43626;53.866;30.298;2023-06-10T14:27:30;1028;;;20.4;32.9
57799;BME280;43626;53.866;30.298;2023-06-10T14:32:04;1028;;;20.3;32.9
57799;BME280;43626;53.866;30.298;2023-06-10T14:37:28;1028.1;;;20.4;32.6
57799;BME280;43626;53.866;30.298;2023-06-10T14:42:30;1028.1;;;20.3;32.5
57799;BME280;43626;53.866;30.298;2023-06-10T14:47:30;1028;;;20.3;32.3
57799;BME280;43626;53.866;30.298;2023-06-10T14:52:16;1028;;;20.2;31.9
57799;BME280;43626;53.866;30.298;2023-06-10T14:57:30;1028;;;20.3;31.9
57799;BME280;43626;53.866;30.298;2023-06-10T15:02:12;1028;;;20.2;32.3
57799;BME280;43626;53.866;30.298;2023-06-10T15:07:28;1028;;;20;32.2
57799;BME280;43626;53.866;30.298;2023-06-10T15:11:42;1028.1;;;20;32.5
57799;BME280;43626;53.866;30.298;2023-06-10T15:17:28;1028.1;;;20.1;32.3
57799;BME280;43626;53.866;30.298;2023-06-10T15:22:14;1028.1;;;20.2;32.1
57799;BME280;43626;53.866;30.298;2023-06-10T15:27:16;1028.1;;;20.3;32.1
57799;BME280;43626;53.866;30.298;2023-06-10T15:31:54;1028.1;;;20.4;31.9
57799;BME280;43626;53.866;30.298;2023-06-10T15:37:28;1028.3;;;20.3;31.8
57799;BME280;43626;53.866;30.298;2023-06-10T15:42:12;1028.3;;;20.2;31.6
57799;BME280;43626;53.866;30.298;2023-06-10T15:47:28;1028.3;;;20.2;31.4
57799;BME280;43626;53.866;30.298;2023-06-10T15:52:04;1028.3;;;20.3;30.7
57799;BME280;43626;53.866;30.298;2023-06-10T15:57:26;1028.4;;;20.3;30.7
57799;BME280;43626;53.866;30.298;2023-06-10T16:02:08;1028.5;;;20.1;30.7
57799;BME280;43626;53.866;30.298;2023-06-10T16:07:28;1028.5;;;19.8;30.7
57799;BME280;43626;53.866;30.298;2023-06-10T16:11:54;1028.5;;;19.6;30.7
57799;BME280;43626;53.866;30.298;2023-06-10T16:17:28;1028.6;;;19.5;30.9
57799;BME280;43626;53.866;30.298;2023-06-10T16:21:56;1028.7;;;19.4;31.1
57799;BME280;43626;53.866;30.298;2023-06-10T16:27:02;1028.7;;;19.3;31
57799;BME280;43626;53.866;30.298;2023-06-10T16:31:48;1028.8;;;19.2;31.1
57799;BME280;43626;53.866;30.298;2023-06-10T16:37:24;1028.8;;;19.2;31
57799;BME280;43626;53.866;30.298;2023-06-10T16:42:12;1028.8;;;19;31
57799;BME280;43626;53.866;30.298;2023-06-10T16:47:30;1028.9;;;18.9;31
57799;BME280;43626;53.866;30.298;2023-06-10T16:51:52;1028.9;;;18.8;31.1
57799;BME280;43626;53.866;30.298;2023-06-10T16:57:30;1028.9;;;18.7;31.2
57799;BME280;43626;53.866;30.298;2023-06-10T17:02:10;1029;;;18.6;31.4
57799;BME280;43626;53.866;30.298;2023-06-10T17:07:14;1029.1;;;18.6;31.7
57799;BME280;43626;53.866;30.298;2023-06-10T17:12:06;1029.1;;;18.4;32.1
57799;BME280;43626;53.866;30.298;2023-06-10T17:17:28;1029.1;;;18.4;32
57799;BME280;43626;53.866;30.298;2023-06-10T17:22:10;1029.1;;;18.3;32
57799;BME280;43626;53.866;30.298;2023-06-10T17:27:28;1029.2;;;18.3;32.1
57799;BME280;43626;53.866;30.298;2023-06-10T17:32:04;1029.2;;;18.3;32.3
57799;BME280;43626;53.866;30.298;2023-06-10T17:37:28;1029.3;;;18.5;32.2
57799;BME280;43626;53.866;30.298;2023-06-10T17:42:10;1029.4;;;18.6;32.2
57799;BME280;43626;53.866;30.298;2023-06-10T17:47:28;1029.4;;;19;32
57799;BME280;43626;53.866;30.298;2023-06-10T17:51:42;1029.5;;;19.3;31.7
57799;BME280;43626;53.866;30.298;2023-06-10T17:57:30;1029.5;;;19.4;31.6
57799;BME280;43626;53.866;30.298;2023-06-10T18:02:14;1029.5;;;19.3;31.4
57799;BME280;43626;53.866;30.298;2023-06-10T18:07:30;1029.6;;;19.8;30.5
57799;BME280;43626;53.866;30.298;2023-06-10T18:12:06;1029.7;;;19.8;30.5
57799;BME280;43626;53.866;30.298;2023-06-10T18:17:28;1029.7;;;19.3;31.4
57799;BME280;43626;53.866;30.298;2023-06-10T18:21:56;1029.7;;;18.7;32.4
57799;BME280;43626;53.866;30.298;2023-06-10T18:27:28;1029.8;;;18.2;33
57799;BME280;43626;53.866;30.298;2023-06-10T18:31:42;1029.9;;;17.9;33.5
57799;BME280;43626;53.866;30.298;2023-06-10T18:37:28;1030;;;17.7;33.9
57799;BME280;43626;53.866;30.298;2023-06-10T18:42:10;1030.1;;;17.6;34.2
57799;BME280;43626;53.866;30.298;2023-06-10T18:47:24;1030.1;;;17.5;34.5
57799;BME280;43626;53.866;30.298;2023-06-10T18:51:54;1030.2;;;17.4;34.8
57799;BME280;43626;53.866;30.298;2023-06-10T18:57:30;1030.2;;;17.3;35
57799;BME280;43626;53.866;30.298;2023-06-10T19:02:10;1030.2;;;17.1;35.1
57799;BME280;43626;53.866;30.298;2023-06-10T19:07:28;1030.2;;;17;35.2
57799;BME280;43626;53.866;30.298;2023-06-10T19:12:12;1030.2;;;16.9;35.3
57799;BME280;43626;53.866;30.298;2023-06-10T19:17:28;1030.3;;;16.8;35.4
57799;BME280;43626;53.866;30.298;2023-06-10T19:22:10;1030.3;;;16.8;35.5
57799;BME280;43626;53.866;30.298;2023-06-10T19:27:20;1030.4;;;16.7;35.4
57799;BME280;43626;53.866;30.298;2023-06-10T19:32:04;1030.3;;;16.6;35.5
57799;BME280;43626;53.866;30.298;2023-06-10T19:37:28;1030.4;;;16.6;35.5
57799;BME280;43626;53.866;30.298;2023-06-10T19:42:02;1030.4;;;16.4;35.7
57799;BME280;43626;53.866;30.298;2023-06-10T19:46:45;1030.4;;;16.4;35.8
57799;BME280;43626;53.866;30.298;2023-06-10T19:51:42;1030.4;;;16.3;36.1
57799;BME280;43626;53.866;30.298;2023-06-10T19:57:30;1030.5;;;16.3;36.3
57799;BME280;43626;53.866;30.298;2023-06-10T20:02:08;1030.5;;;16.3;36.3
57799;BME280;43626;53.866;30.298;2023-06-10T20:06:44;1030.4;;;16.2;36.4
57799;BME280;43626;53.866;30.298;2023-06-10T20:11:50;1030.4;;;16.1;36.5
57799;BME280;43626;53.866;30.298;2023-06-10T20:17:24;1030.4;;;16.1;36.7
57799;BME280;43626;53.866;30.298;2023-06-10T20:22:26;1030.5;;;16.1;36.7
57799;BME280;43626;53.866;30.298;2023-06-10T20:27:10;1030.5;;;16;36.7
57799;BME280;43626;53.866;30.298;2023-06-10T20:31:42;1030.6;;;16;36.7
57799;BME280;43626;53.866;30.298;2023-06-10T20:37:29;1030.6;;;16;36.8
57799;BME280;43626;53.866;30.298;2023-06-10T20:42:12;1030.6;;;15.9;36.9
57799;BME280;43626;53.866;30.298;2023-06-10T20:47:22;1030.6;;;15.8;37
57799;BME280;43626;53.866;30.298;2023-06-10T20:51:42;1030.7;;;15.7;37.4
57799;BME280;43626;53.866;30.298;2023-06-10T20:57:28;1030.8;;;15.6;37.7
57799;BME280;43626;53.866;30.298;2023-06-10T21:02:12;1030.8;;;15.6;37.9
57799;BME280;43626;53.866;30.298;2023-06-10T21:07:08;1030.8;;;15.5;38
57799;BME280;43626;53.866;30.298;2023-06-10T21:11:42;1030.8;;;15.5;38
57799;BME280;43626;53.866;30.298;2023-06-10T21:17:26;1030.9;;;15.4;38
57799;BME280;43626;53.866;30.298;2023-06-10T21:22:28;1030.8;;;15.3;38.1
57799;BME280;43626;53.866;30.298;2023-06-10T21:27:22;1030.9;;;15.2;38.3
57799;BME280;43626;53.866;30.298;2023-06-10T21:31:54;1030.9;;;15.1;38.4
57799;BME280;43626;53.866;30.298;2023-06-10T21:37:26;1030.9;;;15;38.5
57799;BME280;43626;53.866;30.298;2023-06-10T21:42:10;1030.9;;;14.9;38.8
57799;BME280;43626;53.866;30.298;2023-06-10T21:47:20;1030.9;;;14.8;39.2
57799;BME280;43626;53.866;30.298;2023-06-10T21:51:52;1031;;;14.8;39.4
57799;BME280;43626;53.866;30.298;2023-06-10T21:57:16;1031;;;14.7;39.6
57799;BME280;43626;53.866;30.298;2023-06-10T22:02:10;1031.1;;;14.6;39.8
57799;BME280;43626;53.866;30.298;2023-06-10T22:07:20;1031.1;;;14.5;40.1
57799;BME280;43626;53.866;30.298;2023-06-10T22:11:52;1031.1;;;14.5;40.1
57799;BME280;43626;53.866;30.298;2023-06-10T22:17:26;1031.2;;;14.6;40
57799;BME280;43626;53.866;30.298;2023-06-10T22:22:08;1031.2;;;14.6;39.9
57799;BME280;43626;53.866;30.298;2023-06-10T22:27:20;1031.2;;;14.4;40
57799;BME280;43626;53.866;30.298;2023-06-10T22:31:52;1031.1;;;14.3;40.2
57799;BME280;43626;53.866;30.298;2023-06-10T22:37:26;1031.2;;;14.2;40.4
57799;BME280;43626;53.866;30.298;2023-06-10T22:42:10;1031.1;;;14.2;40.7
57799;BME280;43626;53.866;30.298;2023-06-10T22:47:20;1031.2;;;14.1;41.1
57799;BME280;43626;53.866;30.298;2023-06-10T22:51:42;1031.3;;;14;41.3
57799;BME280;43626;53.866;30.298;2023-06-10T22:57:26;1031.3;;;13.9;41.5
57799;BME280;43626;53.866;30.298;2023-06-10T23:01:48;1031.3;;;13.8;41.6
57799;BME280;43626;53.866;30.298;2023-06-10T23:07:21;1031.3;;;13.8;41.6
57799;BME280;43626;53.866;30.298;2023-06-10T23:11:42;1031.3;;;13.8;41.5
57799;BME280;43626;53.866;30.298;2023-06-10T23:17:26;1031.3;;;13.7;41.5
57799;BME280;43626;53.866;30.298;2023-06-10T23:22:06;1031.4;;;13.6;41.6
57799;BME280;43626;53.866;30.298;2023-06-10T23:26:59;1031.4;;;13.5;41.6
57799;BME280;43626;53.866;30.298;2023-06-10T23:31:42;1031.4;;;13.4;41.7
57799;BME280;43626;53.866;30.298;2023-06-10T23:37:24;1031.4;;;13.5;41.8
57799;BME280;43626;53.866;30.298;2023-06-10T23:41:44;1031.4;;;13.4;42
57799;BME280;43626;53.866;30.298;2023-06-10T23:47:18;1031.4;;;13.4;42.1
57799;BME280;43626;53.866;30.298;2023-06-10T23:51:42;1031.4;;;13.3;42
57799;BME280;43626;53.866;30.298;2023-06-10T23:57:08;1031.4;;;13.2;42.1
